PDT,Max TemperatureF,Mean TemperatureF,Min TemperatureF,Max Dew PointF,MeanDew PointF,Min DewpointF,Max Humidity, Mean Humidity, Min Humidity, Max Sea Level PressureIn, Mean Sea Level PressureIn, Min Sea Level PressureIn, Max VisibilityMiles, Mean VisibilityMiles, Min VisibilityMiles, Max Wind SpeedMPH, Mean Wind SpeedMPH, Max Gust SpeedMPH,PrecipitationIn, CloudCover, Events, WindDirDegrees
2012-9-1,66,54,43,50,46,43,100,76,48,30.15,30.10,30.00,10,9,5,14,3,18,0.00,1,,198
2012-9-2,69,57,48,52,49,47,97,79,51,30.21,30.17,30.14,10,10,10,12,5,,0.00,2,,165
2012-9-3,71,57,44,53,48,44,100,83,46,30.21,30.17,30.14,10,7,0,9,1,17,0.00,0,Fog,1
2012-9-4,73,59,46,54,50,45,100,76,43,30.24,30.19,30.12,10,9,4,12,2,,0.00,1,,3
2012-9-5,71,58,46,54,51,46,97,79,56,30.12,30.05,29.97,10,8,1,10,2,16,0.00,0,,337
2012-9-6,79,66,52,53,48,42,81,56,28,30.08,30.04,29.99,10,10,9,13,5,18,0.00,0,,346
2012-9-7,82,64,48,53,47,42,86,57,30,30.17,30.10,30.05,10,10,8,8,2,,0.00,0,,354
2012-9-8,77,60,48,54,50,45,87,69,44,30.05,29.97,29.89,10,10,9,14,2,25,0.00,0,,183
2012-9-9,66,60,55,54,52,47,96,78,62,30.00,29.95,29.92,10,9,4,10,6,,0.00,7,Rain,167
2012-9-10,64,57,50,51,45,40,93,70,43,30.23,30.11,29.95,10,10,10,15,8,26,0.00,1,Rain,226
2012-9-11,64,53,43,47,41,38,97,69,40,30.35,30.32,30.24,10,10,10,7,3,,0.00,1,,293
2012-9-12,66,52,39,48,43,37,89,67,38,30.40,30.34,30.27,10,10,10,9,3,,0.00,0,,331
2012-9-13,73,60,46,50,46,42,89,67,37,30.27,30.18,30.07,10,10,7,8,2,,0.00,0,,358
2012-9-14,73,58,44,52,46,41,90,68,34,30.12,30.08,30.03,10,10,10,9,2,,0.00,0,,352
2012-9-15,71,58,46,51,48,45,97,73,47,30.19,30.16,30.10,10,10,9,7,2,,0.00,0,,154
2012-9-16,75,60,46,52,49,45,96,72,38,30.25,30.19,30.14,10,10,10,12,2,,0.00,0,,349
2012-9-17,78,62,46,51,47,44,97,65,30,30.15,30.09,30.02,10,10,10,10,2,17,0.00,0,,3
2012-9-18,75,62,48,51,48,44,93,68,43,30.08,30.05,30.03,10,9,2,7,1,,0.00,0,,75
2012-9-19,64,54,46,52,48,45,100,90,67,30.18,30.13,30.08,10,5,0,5,1,,0.00,2,Fog,107
2012-9-20,66,54,42,51,48,42,100,90,59,30.12,30.09,30.02,10,5,0,12,1,18,0.00,3,Fog,145
2012-9-21,59,54,51,52,51,50,96,89,77,30.15,30.13,30.10,10,10,1,9,6,18,0.00,7,,156
2012-9-22,63,54,45,51,48,43,93,80,54,30.17,30.15,30.14,10,9,5,7,1,,0.00,4,,149
2012-9-23,64,53,43,51,47,42,97,82,62,30.18,30.15,30.13,10,9,5,7,1,,0.00,3,,161
2012-9-24,61,52,44,52,48,43,100,89,72,30.16,30.13,30.12,10,8,0,6,1,,0.00,3,Fog,126
2012-9-25,64,54,44,52,48,44,100,85,56,30.16,30.13,30.11,10,8,2,10,1,,0.00,3,,341
2012-9-26,62,52,41,50,46,41,100,92,65,30.15,30.12,30.07,10,4,0,5,0,,0.00,4,Fog,120
2012-9-27,68,52,39,51,44,39,100,89,61,30.10,30.07,29.96,10,6,0,5,0,,0.00,3,Fog,120
2012-9-28,64,56,51,53,50,48,93,82,65,30.03,29.98,29.95,10,10,6,8,1,,0.00,3,,108
2012-9-29,64,54,44,51,49,43,96,86,63,30.32,30.18,30.05,10,10,7,6,1,,0.00,3,,195
2012-9-30,66,52,39,50,42,39,100,85,42,30.42,30.38,30.33,10,6,0,10,1,,0.00,1,Fog,351